createdAt,value
2022-08-19T00:02:25.411Z,53.81
2022-08-19T00:05:27.419Z,54.02
2022-08-19T00:08:29.442Z,53.92
2022-08-19T00:11:31.652Z,53.90
2022-08-19T00:14:33.592Z,54.18
2022-08-19T00:17:35.597Z,54.10
2022-08-19T00:20:43.900Z,53.93
2022-08-19T00:23:46.693Z,53.79
2022-08-19T00:26:48.726Z,53.92
2022-08-19T00:29:52.324Z,53.68
2022-08-19T00:32:57.708Z,53.65
2022-08-19T00:36:05.756Z,54.09
2022-08-19T00:39:08.049Z,53.81
2022-08-19T00:42:09.965Z,53.90
2022-08-19T00:45:18.421Z,54.64
2022-08-19T00:48:21.793Z,54.34
2022-08-19T00:51:24.528Z,54.28
2022-08-19T00:54:31.292Z,55.08
2022-08-19T00:57:43.721Z,54.93
2022-08-19T01:00:46.881Z,54.16
2022-08-19T01:03:57.591Z,54.14
2022-08-19T01:07:03.075Z,54.10
2022-08-19T01:10:07.715Z,54.45
2022-08-19T01:13:10.355Z,54.56
2022-08-19T01:16:12.570Z,54.47
2022-08-19T01:19:43.831Z,55.57
2022-08-19T01:22:53.935Z,54.93
2022-08-19T01:25:58.164Z,54.89
2022-08-19T01:29:02.256Z,55.57
2022-08-19T01:32:07.908Z,56.88
2022-08-19T01:35:31.253Z,55.09
2022-08-19T01:38:37.698Z,56.50
2022-08-19T01:41:47.466Z,56.16
2022-08-19T01:44:50.078Z,56.25
2022-08-19T01:48:01.784Z,56.24
2022-08-19T01:51:05.048Z,56.45
2022-08-19T01:54:08.281Z,56.58
2022-08-19T01:57:13.970Z,56.85
2022-08-19T02:00:18.541Z,56.82
2022-08-19T02:03:24.037Z,56.91
2022-08-19T02:06:26.874Z,57.38
2022-08-19T02:09:32.738Z,56.22
2022-08-19T02:12:38.312Z,56.12
2022-08-19T02:15:40.321Z,55.93
2022-08-19T02:18:42.688Z,56.51
2022-08-19T02:21:44.774Z,56.65
2022-08-19T02:24:49.555Z,56.17
2022-08-19T02:27:51.509Z,56.40
2022-08-19T02:30:53.302Z,56.41
2022-08-19T02:33:57.002Z,56.96
2022-08-19T02:37:03.121Z,56.55
2022-08-19T02:40:12.370Z,56.82
2022-08-19T02:43:14.874Z,56.70
2022-08-19T02:46:23.447Z,58.00
2022-08-19T02:49:25.606Z,56.99
2022-08-19T02:52:28.538Z,57.03
2022-08-19T02:55:30.946Z,56.85
2022-08-19T02:58:49.508Z,56.45
2022-08-19T03:01:54.897Z,56.77
2022-08-19T03:04:56.815Z,57.33
2022-08-19T03:08:00.751Z,57.69
2022-08-19T03:11:03.182Z,57.71
2022-08-19T03:14:07.646Z,57.32
2022-08-19T03:17:09.882Z,57.25
2022-08-19T03:20:11.911Z,57.46
2022-08-19T03:23:16.285Z,58.37
2022-08-19T03:26:18.174Z,57.76
2022-08-19T03:29:30.740Z,57.99
2022-08-19T03:32:35.284Z,58.08
2022-08-19T03:35:44.637Z,58.24
2022-08-19T03:38:49.557Z,57.91
2022-08-19T03:42:32.484Z,57.92
2022-08-19T03:45:23.961Z,58.30
2022-08-19T03:48:26.672Z,59.01
2022-08-19T03:51:32.249Z,58.52
2022-08-19T03:54:34.552Z,58.26
2022-08-19T03:57:37.562Z,58.21
2022-08-19T04:00:43.571Z,58.80
2022-08-19T04:03:48.315Z,57.99
2022-08-19T04:06:50.355Z,57.91
2022-08-19T04:09:53.359Z,57.80
2022-08-19T04:12:55.594Z,57.76
2022-08-19T04:15:57.895Z,57.65
2022-08-19T04:19:02.365Z,57.99
2022-08-19T04:22:05.616Z,58.25
2022-08-19T04:25:08.092Z,58.62
2022-08-19T04:28:11.820Z,57.63
2022-08-19T04:31:16.978Z,57.54
2022-08-19T04:34:25.791Z,56.75
2022-08-19T04:37:29.539Z,56.09
2022-08-19T04:41:14.936Z,55.96
2022-08-19T04:44:22.742Z,53.97
2022-08-19T04:47:47.819Z,53.65
2022-08-19T04:50:47.991Z,53.77
2022-08-19T04:53:50.470Z,54.53
2022-08-19T04:56:55.728Z,54.67
2022-08-19T04:59:59.551Z,54.12
2022-08-19T05:03:03.709Z,54.71
2022-08-19T05:06:12.883Z,55.68
2022-08-19T05:09:17.209Z,54.84
2022-08-19T05:12:19.465Z,54.70
2022-08-19T05:15:21.294Z,54.51
2022-08-19T05:18:41.986Z,54.47
2022-08-19T05:22:05.457Z,54.75
2022-08-19T05:25:13.012Z,55.06
2022-08-19T05:28:15.870Z,55.36
2022-08-19T05:31:18.130Z,55.65
2022-08-19T05:34:22.910Z,55.53
2022-08-19T05:37:28.023Z,55.46
2022-08-19T05:40:30.505Z,55.41
2022-08-19T05:43:32.457Z,55.81
2022-08-19T05:46:34.780Z,55.38
2022-08-19T05:49:38.157Z,54.51
2022-08-19T05:52:43.804Z,53.48
2022-08-19T05:55:54.224Z,53.74
2022-08-19T05:59:02.583Z,53.86
2022-08-19T06:02:05.799Z,53.42
2022-08-19T06:05:10.303Z,52.96
2022-08-19T06:08:12.557Z,52.98
2022-08-19T06:11:21.780Z,52.16
2022-08-19T06:14:28.050Z,51.04
2022-08-19T06:17:32.077Z,50.42
2022-08-19T06:20:54.956Z,50.20
2022-08-19T06:23:58.601Z,49.92
2022-08-19T06:27:02.858Z,49.26
2022-08-19T06:30:06.004Z,48.75
2022-08-19T06:33:09.437Z,48.89
2022-08-19T06:36:42.357Z,47.65
2022-08-19T06:39:46.559Z,48.83
2022-08-19T06:42:54.509Z,47.64
2022-08-19T06:46:00.004Z,47.62
2022-08-19T06:49:04.564Z,46.98
2022-08-19T06:52:08.150Z,46.60
2022-08-19T06:55:12.396Z,45.66
2022-08-19T06:58:15.410Z,45.17
2022-08-19T07:01:17.415Z,45.17
2022-08-19T07:04:25.537Z,43.55
2022-08-19T07:07:28.788Z,44.60
2022-08-19T07:10:33.418Z,43.77
2022-08-19T07:13:40.169Z,44.16
2022-08-19T07:16:43.106Z,43.69
2022-08-19T07:19:46.112Z,43.92
2022-08-19T07:22:49.496Z,43.49
2022-08-19T07:25:53.170Z,43.44
2022-08-19T07:28:56.792Z,43.83
2022-08-19T07:32:01.381Z,43.56
2022-08-19T07:35:04.722Z,44.58
2022-08-19T07:38:07.025Z,43.81
2022-08-19T07:41:12.209Z,42.77
2022-08-19T07:44:15.723Z,42.86
2022-08-19T07:47:50.347Z,43.53
2022-08-19T07:50:41.926Z,43.46
2022-08-19T07:53:47.775Z,42.55
2022-08-19T07:56:52.417Z,43.02
2022-08-19T07:59:54.592Z,42.96
2022-08-19T08:02:57.411Z,42.87
2022-08-19T08:06:18.306Z,42.61
2022-08-19T08:09:33.683Z,41.89
2022-08-19T08:12:42.432Z,43.16
2022-08-19T08:15:46.252Z,43.36
2022-08-19T08:18:50.573Z,42.86
2022-08-19T08:21:57.310Z,42.91
2022-08-19T08:25:04.387Z,42.80
2022-08-19T08:28:11.270Z,42.43
2022-08-19T08:31:14.671Z,42.24
2022-08-19T08:34:16.901Z,42.27
2022-08-19T08:37:20.428Z,41.39
2022-08-19T08:40:44.586Z,38.94
2022-08-19T08:43:48.960Z,40.77
2022-08-19T08:46:57.177Z,40.63
2022-08-19T08:50:27.612Z,39.29
2022-08-19T08:53:32.501Z,39.62
2022-08-19T08:56:36.541Z,38.07
2022-08-19T08:59:42.340Z,38.37
2022-08-19T09:02:50.831Z,38.76
2022-08-19T09:06:47.420Z,37.97
2022-08-19T09:09:52.661Z,38.31
2022-08-19T09:13:17.775Z,36.85
2022-08-19T09:16:27.736Z,38.61
2022-08-19T09:19:31.736Z,37.70
2022-08-19T09:22:36.696Z,38.09
2022-08-19T09:25:41.598Z,38.29
2022-08-19T09:28:48.309Z,37.58
2022-08-19T09:31:51.290Z,37.66
2022-08-19T09:34:56.143Z,37.43
2022-08-19T09:38:00.692Z,37.46
2022-08-19T09:41:08.047Z,37.15
2022-08-19T09:44:12.909Z,36.97
2022-08-19T09:47:15.429Z,36.10
2022-08-19T09:50:24.409Z,36.65
2022-08-19T09:53:27.717Z,36.69
2022-08-19T09:56:33.952Z,36.63
2022-08-19T09:59:36.560Z,36.38
2022-08-19T10:02:39.915Z,36.86
2022-08-19T10:05:50.659Z,35.92
2022-08-19T10:08:57.331Z,35.88
2022-08-19T10:12:02.896Z,35.92
2022-08-19T10:15:07.341Z,34.89
2022-08-19T10:18:09.981Z,35.37
2022-08-19T10:21:17.135Z,34.40
2022-08-19T10:24:21.344Z,36.28
2022-08-19T10:27:23.901Z,36.56
2022-08-19T10:30:29.055Z,35.60
2022-08-19T10:33:38.895Z,35.13
2022-08-19T10:36:56.565Z,34.98
2022-08-19T10:40:04.702Z,34.93
2022-08-19T10:43:06.667Z,34.67
2022-08-19T10:46:14.062Z,33.87
2022-08-19T10:49:20.310Z,34.32
2022-08-19T10:52:34.369Z,34.02
2022-08-19T10:55:54.931Z,33.75
2022-08-19T10:58:58.167Z,33.80
2022-08-19T11:02:02.384Z,32.67
2022-08-19T11:05:12.675Z,33.91
2022-08-19T11:08:22.516Z,33.46
2022-08-19T11:11:25.419Z,33.34
2022-08-19T11:14:28.394Z,32.90
2022-08-19T11:17:34.577Z,33.29
2022-08-19T11:20:36.802Z,33.40
2022-08-19T11:23:38.854Z,32.48
2022-08-19T11:26:42.137Z,32.33
2022-08-19T11:29:44.170Z,32.37
2022-08-19T11:32:49.359Z,31.56
2022-08-19T11:35:51.737Z,31.82
2022-08-19T11:38:55.633Z,32.26
2022-08-19T11:41:59.724Z,30.77
2022-08-19T11:45:02.119Z,31.63
2022-08-19T11:48:04.383Z,31.32
2022-08-19T11:51:18.670Z,30.47
2022-08-19T11:54:20.571Z,31.17
2022-08-19T11:57:22.685Z,30.83
2022-08-19T12:00:24.714Z,31.17
2022-08-19T12:03:27.286Z,31.25
2022-08-19T12:06:32.916Z,29.91
2022-08-19T12:09:37.764Z,29.21
2022-08-19T12:12:45.991Z,29.83
2022-08-19T12:15:56.040Z,30.71
2022-08-19T12:19:00.244Z,31.18
2022-08-19T12:22:04.522Z,30.68
2022-08-19T12:25:07.220Z,30.88
2022-08-19T12:28:09.074Z,30.86
2022-08-19T12:31:15.039Z,31.57
2022-08-19T12:34:17.279Z,32.10
2022-08-19T12:37:21.669Z,31.99
2022-08-19T12:40:23.997Z,31.72
2022-08-19T12:43:30.578Z,31.38
2022-08-19T12:46:35.553Z,31.25
2022-08-19T12:49:53.573Z,31.42
2022-08-19T12:52:58.906Z,30.71
2022-08-19T12:56:01.245Z,29.76
2022-08-19T12:59:04.359Z,30.56
2022-08-19T13:02:07.979Z,30.75
2022-08-19T13:05:12.833Z,30.14
2022-08-19T13:08:15.515Z,31.34
2022-08-19T13:11:24.554Z,30.91
2022-08-19T13:14:27.793Z,30.80
2022-08-19T13:17:29.857Z,30.79
2022-08-19T13:20:32.037Z,30.05
2022-08-19T13:23:35.586Z,29.61
2022-08-19T13:26:37.520Z,29.82
2022-08-19T13:30:00.215Z,31.29
2022-08-19T13:33:12.492Z,30.99
2022-08-19T13:36:14.676Z,31.18
2022-08-19T13:39:17.197Z,31.53
2022-08-19T13:42:20.538Z,31.56
2022-08-19T13:45:25.489Z,32.23
2022-08-19T13:48:30.179Z,32.39
2022-08-19T13:51:32.205Z,32.37
2022-08-19T13:54:45.034Z,32.95
2022-08-19T13:57:47.366Z,33.27
2022-08-19T14:00:49.721Z,33.79
2022-08-19T14:03:52.156Z,36.41
2022-08-19T14:06:54.328Z,44.65
2022-08-19T14:09:56.409Z,50.25
2022-08-19T14:13:00.349Z,55.13
2022-08-19T14:16:03.294Z,55.33
2022-08-19T14:19:05.631Z,57.30
2022-08-19T14:22:07.766Z,57.58
2022-08-19T14:25:12.842Z,56.42
2022-08-19T14:28:14.977Z,58.46
2022-08-19T14:31:20.308Z,57.66
2022-08-19T14:34:23.749Z,56.90
2022-08-19T14:37:26.542Z,56.76
2022-08-19T14:40:31.339Z,58.97
2022-08-19T14:43:33.308Z,59.91
2022-08-19T14:46:35.426Z,59.66
2022-08-19T14:49:41.174Z,60.48
2022-08-19T14:52:48.038Z,62.61
2022-08-19T14:55:50.360Z,60.83
2022-08-19T14:58:55.362Z,60.77
2022-08-19T15:01:57.630Z,60.17
2022-08-19T15:04:59.886Z,61.82
2022-08-19T15:08:05.404Z,61.23
2022-08-19T15:11:12.975Z,64.36
2022-08-19T15:14:17.789Z,59.76
2022-08-19T15:17:20.726Z,58.01
2022-08-19T15:20:23.968Z,59.08
2022-08-19T15:23:26.859Z,61.74
2022-08-19T15:26:33.412Z,61.31
2022-08-19T15:29:39.846Z,64.28
2022-08-19T15:32:42.852Z,66.51
2022-08-19T15:35:48.479Z,59.78
2022-08-19T15:38:53.581Z,61.20
2022-08-19T15:41:56.013Z,62.96
2022-08-19T15:45:00.364Z,65.58
2022-08-19T15:48:05.491Z,63.79
2022-08-19T15:51:07.478Z,59.48
2022-08-19T15:54:13.223Z,59.03
2022-08-19T15:57:27.431Z,58.77
2022-08-19T16:00:52.689Z,57.52
2022-08-19T16:04:16.173Z,56.91
2022-08-19T16:07:23.471Z,57.16
2022-08-19T16:10:27.973Z,57.77
2022-08-19T16:13:30.288Z,59.29
2022-08-19T16:16:35.265Z,58.95
2022-08-19T16:19:38.262Z,60.39
2022-08-19T16:22:41.735Z,60.75
2022-08-19T16:25:44.093Z,62.42
2022-08-19T16:28:50.341Z,61.17
2022-08-19T16:31:54.843Z,61.05
2022-08-19T16:35:04.615Z,62.68
2022-08-19T16:38:10.271Z,64.81
2022-08-19T16:41:14.899Z,63.07
2022-08-19T16:44:19.961Z,64.41
2022-08-19T16:47:25.437Z,66.07
2022-08-19T16:50:47.733Z,66.57
2022-08-19T16:53:53.128Z,67.49
2022-08-19T16:56:56.456Z,66.06
2022-08-19T16:59:58.805Z,65.46
2022-08-19T17:03:13.098Z,67.05
2022-08-19T17:06:21.348Z,65.48
2022-08-19T17:09:26.082Z,64.51
2022-08-19T17:12:31.602Z,65.35
2022-08-19T17:15:35.251Z,69.23
2022-08-19T17:18:37.595Z,68.37
2022-08-19T17:21:40.938Z,71.87
2022-08-19T17:24:43.078Z,70.90
2022-08-19T17:27:45.931Z,71.65
2022-08-19T17:30:48.526Z,70.07
2022-08-19T17:33:51.295Z,69.28
2022-08-19T17:36:57.126Z,69.17
2022-08-19T17:40:00.280Z,70.09
2022-08-19T17:43:02.946Z,70.74
2022-08-19T17:46:06.244Z,70.21
2022-08-19T17:49:08.832Z,69.83
2022-08-19T17:52:12.007Z,70.22
2022-08-19T17:55:14.410Z,71.26
2022-08-19T17:58:16.951Z,73.35
2022-08-19T18:01:22.056Z,71.82
2022-08-19T18:07:30.899Z,70.56
2022-08-19T18:10:35.210Z,70.25
2022-08-19T18:13:37.899Z,72.92
2022-08-19T18:16:40.447Z,77.24
2022-08-19T18:19:44.093Z,76.57
2022-08-19T18:22:48.467Z,72.79
2022-08-19T18:25:50.906Z,73.90
2022-08-19T18:28:54.314Z,73.77
2022-08-19T18:31:58.123Z,73.00
2022-08-19T18:35:06.667Z,78.03
2022-08-19T18:38:29.027Z,74.66
2022-08-19T18:41:49.650Z,74.02
2022-08-19T18:45:10.249Z,72.03
2022-08-19T18:48:30.711Z,72.57
2022-08-19T18:51:33.326Z,72.73
2022-08-19T18:54:36.160Z,72.79
2022-08-19T18:57:38.464Z,74.98
2022-08-19T19:00:41.329Z,75.09
2022-08-19T19:03:47.149Z,80.12
2022-08-19T19:06:49.497Z,82.17
2022-08-19T19:09:52.263Z,85.98
2022-08-19T19:12:54.806Z,84.76
2022-08-19T19:15:57.287Z,79.46
2022-08-19T19:19:03.155Z,79.24
2022-08-19T19:22:05.652Z,78.10
2022-08-19T19:25:09.042Z,77.84
2022-08-19T19:28:16.019Z,79.87
2022-08-19T19:31:27.044Z,78.14
2022-08-19T19:34:30.845Z,77.28
2022-08-19T19:37:33.650Z,79.35
2022-08-19T19:40:36.176Z,74.84
2022-08-19T19:43:41.084Z,74.63
2022-08-19T19:46:44.286Z,77.67
2022-08-19T19:53:16.389Z,77.13
2022-08-19T19:56:19.126Z,77.15
2022-08-19T19:59:21.373Z,77.87
2022-08-19T20:02:25.442Z,76.93
2022-08-19T20:05:28.125Z,77.55
2022-08-19T20:08:49.082Z,76.91
2022-08-19T20:11:54.909Z,79.73
2022-08-19T20:14:57.084Z,78.21
2022-08-19T20:18:01.082Z,76.47
2022-08-19T20:21:04.086Z,77.34
2022-08-19T20:24:09.592Z,77.13
2022-08-19T20:27:13.018Z,78.29
2022-08-19T20:30:19.613Z,77.43
2022-08-19T20:33:23.246Z,77.47
2022-08-19T20:36:25.425Z,77.06
2022-08-19T20:39:27.589Z,76.78
2022-08-19T20:42:29.797Z,76.82
2022-08-19T20:45:36.684Z,75.73
2022-08-19T20:48:43.432Z,76.64
2022-08-19T20:51:47.334Z,76.62
2022-08-19T20:54:49.761Z,76.95
2022-08-19T20:57:52.371Z,75.94
2022-08-19T21:00:57.531Z,76.65
2022-08-19T21:03:59.672Z,77.08
2022-08-19T21:07:02.592Z,77.08
2022-08-19T21:10:05.606Z,78.45
2022-08-19T21:13:07.810Z,77.49
2022-08-19T21:16:09.808Z,79.96
2022-08-19T21:19:12.141Z,83.48
2022-08-19T21:22:14.458Z,84.24
2022-08-19T21:25:17.824Z,81.88
2022-08-19T21:28:29.879Z,79.91
2022-08-19T21:31:39.007Z,78.72
2022-08-19T21:34:41.531Z,80.00
2022-08-19T21:37:48.768Z,78.90
2022-08-19T21:40:51.325Z,79.36
2022-08-19T21:43:53.456Z,78.52
2022-08-19T21:46:59.590Z,77.98
2022-08-19T21:50:01.463Z,78.76
2022-08-19T21:53:05.316Z,77.97
2022-08-19T21:56:07.726Z,78.54
2022-08-19T21:59:10.079Z,78.98
2022-08-19T22:02:21.533Z,79.06
2022-08-19T22:05:24.950Z,78.81
2022-08-19T22:08:27.347Z,78.25
2022-08-19T22:11:29.839Z,77.77
2022-08-19T22:14:33.778Z,80.03
2022-08-19T22:17:36.762Z,79.71
2022-08-19T22:20:38.904Z,78.59
2022-08-19T22:23:42.402Z,79.49
2022-08-19T22:26:47.356Z,78.77
2022-08-19T22:29:52.505Z,79.09
2022-08-19T22:33:02.114Z,80.38
2022-08-19T22:36:07.649Z,78.55
2022-08-19T22:42:18.742Z,78.49
2022-08-19T22:45:21.026Z,78.19
2022-08-19T22:48:28.915Z,79.33
2022-08-19T22:51:49.219Z,81.60
2022-08-19T22:54:53.700Z,84.85
2022-08-19T22:57:56.966Z,83.16
2022-08-19T23:00:59.318Z,81.76
2022-08-19T23:04:03.911Z,80.52
2022-08-19T23:07:06.445Z,81.24
2022-08-19T23:10:12.691Z,80.00
2022-08-19T23:13:17.354Z,80.41
2022-08-19T23:16:19.848Z,79.53
2022-08-19T23:19:22.456Z,79.46
2022-08-19T23:22:25.262Z,79.57
2022-08-19T23:25:30.666Z,79.53
2022-08-19T23:28:51.513Z,81.34
2022-08-19T23:31:53.312Z,82.76
2022-08-19T23:34:57.093Z,81.41
2022-08-19T23:38:01.181Z,79.79
2022-08-19T23:41:06.745Z,80.34
2022-08-19T23:44:14.735Z,79.51
2022-08-19T23:47:17.180Z,80.46
2022-08-19T23:50:19.683Z,80.15
2022-08-19T23:53:21.918Z,80.93
2022-08-19T23:56:23.975Z,79.78
2022-08-19T23:59:25.854Z,80.19
